sensor_id;sensor_type;location;lat;lon;timestamp;P1;durP1;ratioP1;P2;durP2;ratioP2
51304;SDS011;37392;50.964;6.952;2024-03-02T00:02:13;5.45;;;2.45;;
51304;SDS011;37392;50.964;6.952;2024-03-02T00:04:39;3.17;;;2.15;;
51304;SDS011;37392;50.964;6.952;2024-03-02T00:07:06;5.93;;;2.58;;
51304;SDS011;37392;50.964;6.952;2024-03-02T00:09:32;4.63;;;2.50;;
51304;SDS011;37392;50.964;6.952;2024-03-02T00:11:58;5.45;;;2.53;;
51304;SDS011;37392;50.964;6.952;2024-03-02T00:14:28;6.97;;;2.80;;
51304;SDS011;37392;50.964;6.952;2024-03-02T00:16:55;3.35;;;2.05;;
51304;SDS011;37392;50.964;6.952;2024-03-02T00:19:21;3.55;;;1.80;;
51304;SDS011;37392;50.964;6.952;2024-03-02T00:21:47;3.45;;;2.13;;
51304;SDS011;37392;50.964;6.952;2024-03-02T00:24:24;5.50;;;2.20;;
51304;SDS011;37392;50.964;6.952;2024-03-02T00:27:00;4.63;;;2.15;;
51304;SDS011;37392;50.964;6.952;2024-03-02T00:29:29;5.07;;;2.05;;
51304;SDS011;37392;50.964;6.952;2024-03-02T00:31:54;6.95;;;2.00;;
51304;SDS011;37392;50.964;6.952;2024-03-02T00:34:20;2.50;;;1.63;;
51304;SDS011;37392;50.964;6.952;2024-03-02T00:36:46;2.55;;;1.75;;
51304;SDS011;37392;50.964;6.952;2024-03-02T00:39:14;3.42;;;2.25;;
51304;SDS011;37392;50.964;6.952;2024-03-02T00:41:42;7.80;;;2.70;;
51304;SDS011;37392;50.964;6.952;2024-03-02T00:44:07;4.38;;;2.13;;
51304;SDS011;37392;50.964;6.952;2024-03-02T00:46:40;5.50;;;1.92;;
51304;SDS011;37392;50.964;6.952;2024-03-02T00:49:23;5.93;;;2.28;;
51304;SDS011;37392;50.964;6.952;2024-03-02T00:51:51;5.72;;;1.88;;
51304;SDS011;37392;50.964;6.952;2024-03-02T00:54:22;4.00;;;1.85;;
51304;SDS011;37392;50.964;6.952;2024-03-02T00:56:51;9.30;;;2.33;;
51304;SDS011;37392;50.964;6.952;2024-03-02T00:59:17;3.10;;;1.67;;
51304;SDS011;37392;50.964;6.952;2024-03-02T01:01:43;2.55;;;1.90;;
51304;SDS011;37392;50.964;6.952;2024-03-02T01:04:08;2.75;;;1.65;;
51304;SDS011;37392;50.964;6.952;2024-03-02T01:06:34;2.38;;;1.65;;
51304;SDS011;37392;50.964;6.952;2024-03-02T01:09:01;3.13;;;1.65;;
51304;SDS011;37392;50.964;6.952;2024-03-02T01:11:27;3.05;;;1.85;;
51304;SDS011;37392;50.964;6.952;2024-03-02T01:13:53;2.75;;;1.60;;
51304;SDS011;37392;50.964;6.952;2024-03-02T01:16:19;4.03;;;1.75;;
51304;SDS011;37392;50.964;6.952;2024-03-02T01:18:44;6.20;;;2.22;;
51304;SDS011;37392;50.964;6.952;2024-03-02T01:21:10;4.03;;;2.05;;
51304;SDS011;37392;50.964;6.952;2024-03-02T01:23:36;5.07;;;1.88;;
51304;SDS011;37392;50.964;6.952;2024-03-02T01:26:01;4.78;;;1.77;;
51304;SDS011;37392;50.964;6.952;2024-03-02T01:28:27;5.32;;;1.77;;
51304;SDS011;37392;50.964;6.952;2024-03-02T01:30:52;3.53;;;1.90;;
51304;SDS011;37392;50.964;6.952;2024-03-02T01:33:19;2.50;;;1.60;;
51304;SDS011;37392;50.964;6.952;2024-03-02T01:35:44;1.73;;;1.42;;
51304;SDS011;37392;50.964;6.952;2024-03-02T01:38:10;3.92;;;1.75;;
51304;SDS011;37392;50.964;6.952;2024-03-02T01:40:36;7.53;;;1.58;;
51304;SDS011;37392;50.964;6.952;2024-03-02T01:43:06;2.00;;;1.50;;
51304;SDS011;37392;50.964;6.952;2024-03-02T01:45:32;6.18;;;1.35;;
51304;SDS011;37392;50.964;6.952;2024-03-02T01:48:00;3.90;;;1.85;;
51304;SDS011;37392;50.964;6.952;2024-03-02T01:50:31;3.97;;;1.67;;
51304;SDS011;37392;50.964;6.952;2024-03-02T01:52:58;2.35;;;1.60;;
51304;SDS011;37392;50.964;6.952;2024-03-02T01:55:24;2.75;;;1.67;;
51304;SDS011;37392;50.964;6.952;2024-03-02T01:57:50;3.95;;;1.60;;
51304;SDS011;37392;50.964;6.952;2024-03-02T02:00:18;2.28;;;1.60;;
51304;SDS011;37392;50.964;6.952;2024-03-02T02:02:45;3.80;;;1.63;;
51304;SDS011;37392;50.964;6.952;2024-03-02T02:05:14;3.50;;;1.80;;
51304;SDS011;37392;50.964;6.952;2024-03-02T02:07:40;4.68;;;1.48;;
51304;SDS011;37392;50.964;6.952;2024-03-02T02:10:07;5.80;;;1.88;;
51304;SDS011;37392;50.964;6.952;2024-03-02T02:12:34;11.43;;;2.00;;
51304;SDS011;37392;50.964;6.952;2024-03-02T02:15:00;3.83;;;1.55;;
51304;SDS011;37392;50.964;6.952;2024-03-02T02:17:25;3.90;;;1.17;;
51304;SDS011;37392;50.964;6.952;2024-03-02T02:19:51;3.63;;;1.40;;
51304;SDS011;37392;50.964;6.952;2024-03-02T02:22:17;3.58;;;1.50;;
51304;SDS011;37392;50.964;6.952;2024-03-02T02:24:42;6.55;;;1.65;;
51304;SDS011;37392;50.964;6.952;2024-03-02T02:27:08;1.67;;;1.23;;
51304;SDS011;37392;50.964;6.952;2024-03-02T02:29:35;3.63;;;1.70;;
51304;SDS011;37392;50.964;6.952;2024-03-02T02:32:01;2.60;;;1.45;;
51304;SDS011;37392;50.964;6.952;2024-03-02T02:34:27;3.72;;;1.08;;
51304;SDS011;37392;50.964;6.952;2024-03-02T02:36:54;1.75;;;1.40;;
51304;SDS011;37392;50.964;6.952;2024-03-02T02:39:20;6.05;;;1.65;;
51304;SDS011;37392;50.964;6.952;2024-03-02T02:41:49;1.80;;;1.23;;
51304;SDS011;37392;50.964;6.952;2024-03-02T02:44:15;3.17;;;1.55;;
51304;SDS011;37392;50.964;6.952;2024-03-02T02:46:40;2.83;;;1.38;;
51304;SDS011;37392;50.964;6.952;2024-03-02T02:49:06;1.95;;;1.30;;
51304;SDS011;37392;50.964;6.952;2024-03-02T02:51:32;2.22;;;1.40;;
51304;SDS011;37392;50.964;6.952;2024-03-02T02:53:58;7.75;;;1.85;;
51304;SDS011;37392;50.964;6.952;2024-03-02T02:56:24;4.22;;;1.48;;
51304;SDS011;37392;50.964;6.952;2024-03-02T02:58:49;3.75;;;1.40;;
51304;SDS011;37392;50.964;6.952;2024-03-02T03:01:15;5.35;;;1.67;;
51304;SDS011;37392;50.964;6.952;2024-03-02T03:03:44;1.60;;;1.13;;
51304;SDS011;37392;50.964;6.952;2024-03-02T03:06:10;3.83;;;1.38;;
51304;SDS011;37392;50.964;6.952;2024-03-02T03:08:36;2.10;;;1.35;;
51304;SDS011;37392;50.964;6.952;2024-03-02T03:11:02;3.65;;;1.75;;
51304;SDS011;37392;50.964;6.952;2024-03-02T03:13:28;7.60;;;1.60;;
51304;SDS011;37392;50.964;6.952;2024-03-02T03:15:53;3.55;;;1.20;;
51304;SDS011;37392;50.964;6.952;2024-03-02T03:18:19;3.15;;;1.55;;
51304;SDS011;37392;50.964;6.952;2024-03-02T03:20:44;3.40;;;1.63;;
51304;SDS011;37392;50.964;6.952;2024-03-02T03:23:10;2.25;;;1.40;;
51304;SDS011;37392;50.964;6.952;2024-03-02T03:25:40;5.43;;;1.40;;
51304;SDS011;37392;50.964;6.952;2024-03-02T03:28:06;3.17;;;1.27;;
51304;SDS011;37392;50.964;6.952;2024-03-02T03:30:32;5.57;;;1.88;;
51304;SDS011;37392;50.964;6.952;2024-03-02T03:32:57;3.08;;;1.88;;
51304;SDS011;37392;50.964;6.952;2024-03-02T03:35:23;2.38;;;1.50;;
51304;SDS011;37392;50.964;6.952;2024-03-02T03:37:48;2.78;;;1.38;;
51304;SDS011;37392;50.964;6.952;2024-03-02T03:40:14;1.83;;;1.13;;
51304;SDS011;37392;50.964;6.952;2024-03-02T03:42:39;2.80;;;1.55;;
51304;SDS011;37392;50.964;6.952;2024-03-02T03:45:05;6.45;;;1.38;;
51304;SDS011;37392;50.964;6.952;2024-03-02T03:47:32;1.70;;;1.17;;
51304;SDS011;37392;50.964;6.952;2024-03-02T03:49:58;2.25;;;1.75;;
51304;SDS011;37392;50.964;6.952;2024-03-02T03:52:23;3.30;;;1.73;;
51304;SDS011;37392;50.964;6.952;2024-03-02T03:54:49;2.67;;;1.52;;
51304;SDS011;37392;50.964;6.952;2024-03-02T03:57:15;2.17;;;1.30;;
51304;SDS011;37392;50.964;6.952;2024-03-02T03:59:41;4.55;;;1.50;;
51304;SDS011;37392;50.964;6.952;2024-03-02T04:02:07;3.40;;;1.90;;
51304;SDS011;37392;50.964;6.952;2024-03-02T04:04:34;9.43;;;1.45;;
51304;SDS011;37392;50.964;6.952;2024-03-02T04:07:00;3.28;;;1.67;;
51304;SDS011;37392;50.964;6.952;2024-03-02T04:09:26;3.08;;;1.45;;
51304;SDS011;37392;50.964;6.952;2024-03-02T04:11:52;1.65;;;1.42;;
51304;SDS011;37392;50.964;6.952;2024-03-02T04:14:18;2.53;;;1.52;;
51304;SDS011;37392;50.964;6.952;2024-03-02T04:16:43;3.42;;;1.50;;
51304;SDS011;37392;50.964;6.952;2024-03-02T04:19:08;2.67;;;1.42;;
51304;SDS011;37392;50.964;6.952;2024-03-02T04:21:34;3.58;;;1.70;;
51304;SDS011;37392;50.964;6.952;2024-03-02T04:23:59;3.75;;;1.40;;
51304;SDS011;37392;50.964;6.952;2024-03-02T04:26:25;2.60;;;1.63;;
51304;SDS011;37392;50.964;6.952;2024-03-02T04:28:52;7.68;;;2.47;;
51304;SDS011;37392;50.964;6.952;2024-03-02T04:31:18;6.65;;;1.80;;
51304;SDS011;37392;50.964;6.952;2024-03-02T04:33:44;2.63;;;1.80;;
51304;SDS011;37392;50.964;6.952;2024-03-02T04:36:10;2.42;;;1.58;;
51304;SDS011;37392;50.964;6.952;2024-03-02T04:38:35;2.28;;;1.58;;
51304;SDS011;37392;50.964;6.952;2024-03-02T04:41:03;5.15;;;1.80;;
51304;SDS011;37392;50.964;6.952;2024-03-02T04:43:32;4.20;;;1.50;;
51304;SDS011;37392;50.964;6.952;2024-03-02T04:45:58;8.77;;;2.10;;
51304;SDS011;37392;50.964;6.952;2024-03-02T04:48:24;4.07;;;1.60;;
51304;SDS011;37392;50.964;6.952;2024-03-02T04:50:50;2.85;;;1.88;;
51304;SDS011;37392;50.964;6.952;2024-03-02T04:53:15;2.85;;;1.92;;
51304;SDS011;37392;50.964;6.952;2024-03-02T04:55:41;2.90;;;1.73;;
51304;SDS011;37392;50.964;6.952;2024-03-02T04:58:06;2.55;;;1.73;;
51304;SDS011;37392;50.964;6.952;2024-03-02T05:00:32;3.15;;;1.60;;
51304;SDS011;37392;50.964;6.952;2024-03-02T05:02:58;3.47;;;1.88;;
51304;SDS011;37392;50.964;6.952;2024-03-02T05:05:24;7.57;;;2.97;;
51304;SDS011;37392;50.964;6.952;2024-03-02T05:07:49;3.65;;;1.92;;
51304;SDS011;37392;50.964;6.952;2024-03-02T05:10:15;2.92;;;1.83;;
51304;SDS011;37392;50.964;6.952;2024-03-02T05:12:41;8.13;;;1.98;;
51304;SDS011;37392;50.964;6.952;2024-03-02T05:15:09;4.65;;;1.73;;
51304;SDS011;37392;50.964;6.952;2024-03-02T05:17:38;9.15;;;2.50;;
51304;SDS011;37392;50.964;6.952;2024-03-02T05:20:10;5.25;;;2.65;;
51304;SDS011;37392;50.964;6.952;2024-03-02T05:22:36;9.13;;;2.50;;
51304;SDS011;37392;50.964;6.952;2024-03-02T05:25:03;2.20;;;1.38;;
51304;SDS011;37392;50.964;6.952;2024-03-02T05:27:30;2.83;;;1.85;;
51304;SDS011;37392;50.964;6.952;2024-03-02T05:29:57;3.67;;;2.10;;
51304;SDS011;37392;50.964;6.952;2024-03-02T05:32:23;7.53;;;1.85;;
51304;SDS011;37392;50.964;6.952;2024-03-02T05:34:49;4.18;;;2.00;;
51304;SDS011;37392;50.964;6.952;2024-03-02T05:37:15;5.07;;;1.92;;
51304;SDS011;37392;50.964;6.952;2024-03-02T05:39:41;7.15;;;2.55;;
51304;SDS011;37392;50.964;6.952;2024-03-02T05:42:08;4.22;;;2.45;;
51304;SDS011;37392;50.964;6.952;2024-03-02T05:44:34;3.85;;;2.13;;
51304;SDS011;37392;50.964;6.952;2024-03-02T05:47:01;5.78;;;2.67;;
51304;SDS011;37392;50.964;6.952;2024-03-02T05:49:28;7.50;;;2.85;;
51304;SDS011;37392;50.964;6.952;2024-03-02T05:51:53;10.02;;;2.38;;
51304;SDS011;37392;50.964;6.952;2024-03-02T05:54:19;2.85;;;2.30;;
51304;SDS011;37392;50.964;6.952;2024-03-02T05:56:44;2.72;;;1.88;;
51304;SDS011;37392;50.964;6.952;2024-03-02T05:59:10;13.60;;;2.95;;
51304;SDS011;37392;50.964;6.952;2024-03-02T06:01:38;4.07;;;2.15;;
51304;SDS011;37392;50.964;6.952;2024-03-02T06:04:08;9.27;;;2.20;;
51304;SDS011;37392;50.964;6.952;2024-03-02T06:06:36;9.48;;;2.10;;
51304;SDS011;37392;50.964;6.952;2024-03-02T06:09:02;3.63;;;2.13;;
51304;SDS011;37392;50.964;6.952;2024-03-02T06:11:37;2.97;;;2.08;;
51304;SDS011;37392;50.964;6.952;2024-03-02T06:14:05;3.92;;;2.28;;
51304;SDS011;37392;50.964;6.952;2024-03-02T06:16:32;10.10;;;2.17;;
51304;SDS011;37392;50.964;6.952;2024-03-02T06:18:58;4.03;;;2.17;;
51304;SDS011;37392;50.964;6.952;2024-03-02T06:21:24;6.90;;;2.65;;
51304;SDS011;37392;50.964;6.952;2024-03-02T06:23:50;5.57;;;2.65;;
51304;SDS011;37392;50.964;6.952;2024-03-02T06:26:15;6.32;;;2.35;;
51304;SDS011;37392;50.964;6.952;2024-03-02T06:28:41;6.85;;;2.85;;
51304;SDS011;37392;50.964;6.952;2024-03-02T06:31:07;4.45;;;1.85;;
51304;SDS011;37392;50.964;6.952;2024-03-02T06:33:34;6.70;;;2.65;;
51304;SDS011;37392;50.964;6.952;2024-03-02T06:35:59;7.82;;;2.35;;
51304;SDS011;37392;50.964;6.952;2024-03-02T06:38:25;4.60;;;2.65;;
51304;SDS011;37392;50.964;6.952;2024-03-02T06:40:51;8.70;;;2.30;;
51304;SDS011;37392;50.964;6.952;2024-03-02T06:43:16;7.68;;;2.47;;
51304;SDS011;37392;50.964;6.952;2024-03-02T06:45:42;6.93;;;2.85;;
51304;SDS011;37392;50.964;6.952;2024-03-02T06:48:08;8.80;;;3.28;;
51304;SDS011;37392;50.964;6.952;2024-03-02T06:50:33;4.78;;;2.35;;
51304;SDS011;37392;50.964;6.952;2024-03-02T06:52:59;6.03;;;3.13;;
51304;SDS011;37392;50.964;6.952;2024-03-02T06:55:25;13.77;;;2.88;;
51304;SDS011;37392;50.964;6.952;2024-03-02T06:57:50;4.45;;;2.78;;
51304;SDS011;37392;50.964;6.952;2024-03-02T07:00:17;8.05;;;2.97;;
51304;SDS011;37392;50.964;6.952;2024-03-02T07:02:45;4.38;;;2.80;;
51304;SDS011;37392;50.964;6.952;2024-03-02T07:05:11;6.88;;;2.60;;
51304;SDS011;37392;50.964;6.952;2024-03-02T07:07:37;5.75;;;2.72;;
51304;SDS011;37392;50.964;6.952;2024-03-02T07:10:03;9.98;;;3.63;;
51304;SDS011;37392;50.964;6.952;2024-03-02T07:12:30;4.97;;;2.42;;
51304;SDS011;37392;50.964;6.952;2024-03-02T07:14:56;5.45;;;2.83;;
51304;SDS011;37392;50.964;6.952;2024-03-02T07:17:28;5.63;;;2.72;;
51304;SDS011;37392;50.964;6.952;2024-03-02T07:19:55;4.32;;;2.47;;
51304;SDS011;37392;50.964;6.952;2024-03-02T07:22:21;10.82;;;2.42;;
51304;SDS011;37392;50.964;6.952;2024-03-02T07:24:47;5.40;;;2.63;;
51304;SDS011;37392;50.964;6.952;2024-03-02T07:27:14;2.47;;;1.70;;
51304;SDS011;37392;50.964;6.952;2024-03-02T07:29:40;6.75;;;2.72;;
51304;SDS011;37392;50.964;6.952;2024-03-02T07:32:07;4.50;;;2.30;;
51304;SDS011;37392;50.964;6.952;2024-03-02T07:34:34;12.23;;;1.80;;
51304;SDS011;37392;50.964;6.952;2024-03-02T07:37:00;3.97;;;2.28;;
51304;SDS011;37392;50.964;6.952;2024-03-02T07:39:26;6.10;;;2.67;;
51304;SDS011;37392;50.964;6.952;2024-03-02T07:41:52;6.15;;;2.50;;
51304;SDS011;37392;50.964;6.952;2024-03-02T07:44:18;12.82;;;2.78;;
51304;SDS011;37392;50.964;6.952;2024-03-02T07:46:44;4.95;;;2.20;;
51304;SDS011;37392;50.964;6.952;2024-03-02T07:49:11;8.98;;;3.13;;
51304;SDS011;37392;50.964;6.952;2024-03-02T07:51:41;8.02;;;2.38;;
51304;SDS011;37392;50.964;6.952;2024-03-02T07:54:07;4.68;;;2.53;;
51304;SDS011;37392;50.964;6.952;2024-03-02T07:56:32;6.88;;;2.15;;
51304;SDS011;37392;50.964;6.952;2024-03-02T07:58:58;7.38;;;2.38;;
51304;SDS011;37392;50.964;6.952;2024-03-02T08:01:29;4.55;;;2.17;;
51304;SDS011;37392;50.964;6.952;2024-03-02T08:03:59;3.95;;;2.75;;
51304;SDS011;37392;50.964;6.952;2024-03-02T08:06:26;7.45;;;2.90;;
51304;SDS011;37392;50.964;6.952;2024-03-02T08:08:56;6.78;;;1.90;;
51304;SDS011;37392;50.964;6.952;2024-03-02T08:11:23;5.65;;;2.90;;
51304;SDS011;37392;50.964;6.952;2024-03-02T08:13:51;8.70;;;2.63;;
51304;SDS011;37392;50.964;6.952;2024-03-02T08:16:19;6.63;;;3.35;;
51304;SDS011;37392;50.964;6.952;2024-03-02T08:18:45;6.82;;;2.65;;
51304;SDS011;37392;50.964;6.952;2024-03-02T08:21:12;6.22;;;2.63;;
51304;SDS011;37392;50.964;6.952;2024-03-02T08:23:38;5.70;;;2.80;;
51304;SDS011;37392;50.964;6.952;2024-03-02T08:26:05;4.63;;;2.60;;
51304;SDS011;37392;50.964;6.952;2024-03-02T08:28:31;4.80;;;2.40;;
51304;SDS011;37392;50.964;6.952;2024-03-02T08:30:58;5.10;;;2.53;;
51304;SDS011;37392;50.964;6.952;2024-03-02T08:33:23;4.38;;;2.40;;
51304;SDS011;37392;50.964;6.952;2024-03-02T08:35:51;7.78;;;3.10;;
51304;SDS011;37392;50.964;6.952;2024-03-02T08:38:17;6.90;;;2.67;;
51304;SDS011;37392;50.964;6.952;2024-03-02T08:40:44;6.38;;;3.08;;
51304;SDS011;37392;50.964;6.952;2024-03-02T08:43:09;6.25;;;2.30;;
51304;SDS011;37392;50.964;6.952;2024-03-02T08:45:36;6.78;;;2.47;;
51304;SDS011;37392;50.964;6.952;2024-03-02T08:48:02;5.45;;;1.88;;
51304;SDS011;37392;50.964;6.952;2024-03-02T08:50:28;6.30;;;2.33;;
51304;SDS011;37392;50.964;6.952;2024-03-02T08:52:54;2.88;;;1.60;;
51304;SDS011;37392;50.964;6.952;2024-03-02T08:55:23;8.45;;;1.80;;
51304;SDS011;37392;50.964;6.952;2024-03-02T08:57:48;3.63;;;2.00;;
51304;SDS011;37392;50.964;6.952;2024-03-02T09:00:15;8.15;;;1.98;;
51304;SDS011;37392;50.964;6.952;2024-03-02T09:02:43;2.85;;;1.83;;
51304;SDS011;37392;50.964;6.952;2024-03-02T09:05:09;9.13;;;2.10;;
51304;SDS011;37392;50.964;6.952;2024-03-02T09:07:38;8.93;;;2.13;;
51304;SDS011;37392;50.964;6.952;2024-03-02T09:10:06;7.25;;;1.70;;
51304;SDS011;37392;50.964;6.952;2024-03-02T09:12:33;4.00;;;2.17;;
51304;SDS011;37392;50.964;6.952;2024-03-02T09:15:00;6.60;;;2.05;;
51304;SDS011;37392;50.964;6.952;2024-03-02T09:17:31;3.38;;;1.95;;
51304;SDS011;37392;50.964;6.952;2024-03-02T09:19:56;4.97;;;1.95;;
51304;SDS011;37392;50.964;6.952;2024-03-02T09:22:22;4.20;;;1.83;;
51304;SDS011;37392;50.964;6.952;2024-03-02T09:24:48;4.32;;;1.90;;
51304;SDS011;37392;50.964;6.952;2024-03-02T09:27:13;7.40;;;2.28;;
51304;SDS011;37392;50.964;6.952;2024-03-02T09:29:39;5.07;;;2.05;;
51304;SDS011;37392;50.964;6.952;2024-03-02T09:32:05;6.20;;;1.73;;
51304;SDS011;37392;50.964;6.952;2024-03-02T09:34:33;9.38;;;2.10;;
51304;SDS011;37392;50.964;6.952;2024-03-02T09:36:59;4.47;;;1.95;;
51304;SDS011;37392;50.964;6.952;2024-03-02T09:39:25;5.72;;;1.77;;
51304;SDS011;37392;50.964;6.952;2024-03-02T09:41:51;5.75;;;1.85;;
51304;SDS011;37392;50.964;6.952;2024-03-02T09:44:26;5.82;;;2.08;;
51304;SDS011;37392;50.964;6.952;2024-03-02T09:46:52;6.60;;;2.13;;
51304;SDS011;37392;50.964;6.952;2024-03-02T09:49:18;3.95;;;1.77;;
51304;SDS011;37392;50.964;6.952;2024-03-02T09:51:47;4.43;;;1.20;;
51304;SDS011;37392;50.964;6.952;2024-03-02T09:54:13;6.15;;;2.00;;
51304;SDS011;37392;50.964;6.952;2024-03-02T09:56:41;6.60;;;1.98;;
51304;SDS011;37392;50.964;6.952;2024-03-02T09:59:06;6.60;;;1.45;;
51304;SDS011;37392;50.964;6.952;2024-03-02T10:01:32;4.05;;;1.77;;
51304;SDS011;37392;50.964;6.952;2024-03-02T10:04:01;2.55;;;1.60;;
51304;SDS011;37392;50.964;6.952;2024-03-02T10:06:29;6.63;;;1.42;;
51304;SDS011;37392;50.964;6.952;2024-03-02T10:08:55;7.30;;;1.23;;
51304;SDS011;37392;50.964;6.952;2024-03-02T10:11:28;2.33;;;1.30;;
51304;SDS011;37392;50.964;6.952;2024-03-02T10:14:11;7.30;;;1.63;;
51304;SDS011;37392;50.964;6.952;2024-03-02T10:19:18;3.38;;;1.75;;
51304;SDS011;37392;50.964;6.952;2024-03-02T10:21:51;6.90;;;1.70;;
51304;SDS011;37392;50.964;6.952;2024-03-02T10:26:44;4.53;;;1.35;;
51304;SDS011;37392;50.964;6.952;2024-03-02T10:29:10;12.30;;;2.60;;
51304;SDS011;37392;50.964;6.952;2024-03-02T10:31:41;7.35;;;1.52;;
51304;SDS011;37392;50.964;6.952;2024-03-02T10:34:11;1.55;;;1.33;;
51304;SDS011;37392;50.964;6.952;2024-03-02T10:36:40;8.88;;;1.77;;
51304;SDS011;37392;50.964;6.952;2024-03-02T10:39:07;2.65;;;1.25;;
51304;SDS011;37392;50.964;6.952;2024-03-02T10:41:37;3.65;;;1.73;;
51304;SDS011;37392;50.964;6.952;2024-03-02T10:44:04;15.25;;;2.03;;
51304;SDS011;37392;50.964;6.952;2024-03-02T10:46:33;3.33;;;1.95;;
51304;SDS011;37392;50.964;6.952;2024-03-02T10:49:02;3.35;;;1.88;;
51304;SDS011;37392;50.964;6.952;2024-03-02T10:51:30;2.95;;;1.70;;
51304;SDS011;37392;50.964;6.952;2024-03-02T10:53:58;3.90;;;1.95;;
51304;SDS011;37392;50.964;6.952;2024-03-02T10:57:01;6.18;;;2.13;;
51304;SDS011;37392;50.964;6.952;2024-03-02T10:59:32;4.35;;;1.77;;
51304;SDS011;37392;50.964;6.952;2024-03-02T11:02:01;3.63;;;1.52;;
51304;SDS011;37392;50.964;6.952;2024-03-02T11:04:29;6.75;;;2.20;;
51304;SDS011;37392;50.964;6.952;2024-03-02T11:07:03;4.70;;;2.10;;
51304;SDS011;37392;50.964;6.952;2024-03-02T11:09:37;4.93;;;1.55;;
51304;SDS011;37392;50.964;6.952;2024-03-02T11:12:09;4.38;;;1.92;;
51304;SDS011;37392;50.964;6.952;2024-03-02T11:14:53;3.83;;;1.70;;
51304;SDS011;37392;50.964;6.952;2024-03-02T11:17:21;3.70;;;1.60;;
51304;SDS011;37392;50.964;6.952;2024-03-02T11:19:48;5.97;;;2.00;;
51304;SDS011;37392;50.964;6.952;2024-03-02T11:22:15;7.80;;;1.95;;
51304;SDS011;37392;50.964;6.952;2024-03-02T11:24:51;5.95;;;2.05;;
51304;SDS011;37392;50.964;6.952;2024-03-02T11:30:53;2.72;;;1.58;;
51304;SDS011;37392;50.964;6.952;2024-03-02T11:33:02;3.00;;;1.40;;
51304;SDS011;37392;50.964;6.952;2024-03-02T11:35:33;3.05;;;1.65;;
51304;SDS011;37392;50.964;6.952;2024-03-02T11:38:13;2.30;;;1.50;;
51304;SDS011;37392;50.964;6.952;2024-03-02T11:40:39;11.38;;;1.65;;
51304;SDS011;37392;50.964;6.952;2024-03-02T11:43:06;5.45;;;1.17;;
51304;SDS011;37392;50.964;6.952;2024-03-02T11:45:35;4.45;;;1.58;;
51304;SDS011;37392;50.964;6.952;2024-03-02T11:48:05;3.80;;;1.20;;
51304;SDS011;37392;50.964;6.952;2024-03-02T11:50:47;5.65;;;1.58;;
51304;SDS011;37392;50.964;6.952;2024-03-02T11:53:15;3.45;;;1.80;;
51304;SDS011;37392;50.964;6.952;2024-03-02T11:55:42;3.30;;;1.48;;
51304;SDS011;37392;50.964;6.952;2024-03-02T11:58:11;2.10;;;1.20;;
51304;SDS011;37392;50.964;6.952;2024-03-02T12:00:38;5.28;;;1.90;;
51304;SDS011;37392;50.964;6.952;2024-03-02T12:05:31;3.53;;;1.75;;
51304;SDS011;37392;50.964;6.952;2024-03-02T12:07:58;3.65;;;1.73;;
51304;SDS011;37392;50.964;6.952;2024-03-02T12:10:31;3.55;;;1.65;;
51304;SDS011;37392;50.964;6.952;2024-03-02T12:13:05;5.10;;;1.70;;
51304;SDS011;37392;50.964;6.952;2024-03-02T12:15:33;6.88;;;2.45;;
51304;SDS011;37392;50.964;6.952;2024-03-02T12:18:01;5.88;;;2.42;;
51304;SDS011;37392;50.964;6.952;2024-03-02T12:20:28;7.40;;;1.80;;
51304;SDS011;37392;50.964;6.952;2024-03-02T12:22:55;2.88;;;0.95;;
51304;SDS011;37392;50.964;6.952;2024-03-02T12:25:24;4.65;;;1.70;;
51304;SDS011;37392;50.964;6.952;2024-03-02T12:27:51;5.10;;;1.67;;
51304;SDS011;37392;50.964;6.952;2024-03-02T12:30:20;2.05;;;1.35;;
51304;SDS011;37392;50.964;6.952;2024-03-02T12:32:47;2.17;;;1.10;;
51304;SDS011;37392;50.964;6.952;2024-03-02T12:35:13;2.90;;;1.00;;
51304;SDS011;37392;50.964;6.952;2024-03-02T12:37:47;5.20;;;1.02;;
51304;SDS011;37392;50.964;6.952;2024-03-02T12:40:15;2.80;;;1.20;;
51304;SDS011;37392;50.964;6.952;2024-03-02T12:42:43;2.35;;;0.95;;
51304;SDS011;37392;50.964;6.952;2024-03-02T12:45:09;1.48;;;0.98;;
51304;SDS011;37392;50.964;6.952;2024-03-02T12:47:36;3.20;;;1.08;;
51304;SDS011;37392;50.964;6.952;2024-03-02T12:50:03;2.65;;;1.05;;
51304;SDS011;37392;50.964;6.952;2024-03-02T12:52:30;2.63;;;0.90;;
51304;SDS011;37392;50.964;6.952;2024-03-02T12:54:58;1.27;;;0.77;;
51304;SDS011;37392;50.964;6.952;2024-03-02T12:57:29;3.20;;;1.40;;
51304;SDS011;37392;50.964;6.952;2024-03-02T13:00:00;4.55;;;1.35;;
51304;SDS011;37392;50.964;6.952;2024-03-02T13:02:40;2.95;;;1.33;;
51304;SDS011;37392;50.964;6.952;2024-03-02T13:05:06;1.65;;;0.93;;
51304;SDS011;37392;50.964;6.952;2024-03-02T13:07:39;5.25;;;1.30;;
51304;SDS011;37392;50.964;6.952;2024-03-02T13:10:06;2.90;;;1.77;;
51304;SDS011;37392;50.964;6.952;2024-03-02T13:12:35;2.20;;;0.98;;
51304;SDS011;37392;50.964;6.952;2024-03-02T13:15:02;2.88;;;1.23;;
51304;SDS011;37392;50.964;6.952;2024-03-02T13:17:29;2.25;;;1.17;;
51304;SDS011;37392;50.964;6.952;2024-03-02T13:19:55;2.42;;;1.65;;
51304;SDS011;37392;50.964;6.952;2024-03-02T13:22:22;2.13;;;1.50;;
51304;SDS011;37392;50.964;6.952;2024-03-02T13:24:49;4.65;;;1.17;;
51304;SDS011;37392;50.964;6.952;2024-03-02T13:27:16;2.42;;;1.30;;
51304;SDS011;37392;50.964;6.952;2024-03-02T13:29:45;3.17;;;1.27;;
51304;SDS011;37392;50.964;6.952;2024-03-02T13:32:12;3.35;;;1.48;;
51304;SDS011;37392;50.964;6.952;2024-03-02T13:34:41;2.20;;;1.00;;
51304;SDS011;37392;50.964;6.952;2024-03-02T13:37:07;3.60;;;1.30;;
51304;SDS011;37392;50.964;6.952;2024-03-02T13:39:33;1.23;;;1.02;;
51304;SDS011;37392;50.964;6.952;2024-03-02T13:42:06;3.13;;;1.27;;
51304;SDS011;37392;50.964;6.952;2024-03-02T13:44:33;1.90;;;0.85;;
51304;SDS011;37392;50.964;6.952;2024-03-02T13:47:02;5.00;;;1.30;;
51304;SDS011;37392;50.964;6.952;2024-03-02T13:49:29;2.05;;;1.50;;
51304;SDS011;37392;50.964;6.952;2024-03-02T13:52:08;2.72;;;1.02;;
51304;SDS011;37392;50.964;6.952;2024-03-02T13:54:38;2.00;;;1.00;;
51304;SDS011;37392;50.964;6.952;2024-03-02T13:57:10;8.73;;;2.17;;
51304;SDS011;37392;50.964;6.952;2024-03-02T13:59:37;1.42;;;0.85;;
51304;SDS011;37392;50.964;6.952;2024-03-02T14:02:03;2.05;;;1.40;;
51304;SDS011;37392;50.964;6.952;2024-03-02T14:04:30;4.97;;;0.80;;
51304;SDS011;37392;50.964;6.952;2024-03-02T14:06:59;7.30;;;1.02;;
51304;SDS011;37392;50.964;6.952;2024-03-02T14:09:26;3.15;;;1.25;;
51304;SDS011;37392;50.964;6.952;2024-03-02T14:11:52;1.80;;;0.95;;
51304;SDS011;37392;50.964;6.952;2024-03-02T14:14:18;1.10;;;0.80;;
51304;SDS011;37392;50.964;6.952;2024-03-02T14:16:44;0.95;;;0.70;;
51304;SDS011;37392;50.964;6.952;2024-03-02T14:19:10;3.03;;;0.80;;
51304;SDS011;37392;50.964;6.952;2024-03-02T14:21:37;2.60;;;0.85;;
51304;SDS011;37392;50.964;6.952;2024-03-02T14:24:04;2.58;;;0.80;;
51304;SDS011;37392;50.964;6.952;2024-03-02T14:26:29;1.58;;;0.70;;
51304;SDS011;37392;50.964;6.952;2024-03-02T14:28:55;2.05;;;0.73;;
51304;SDS011;37392;50.964;6.952;2024-03-02T14:31:21;1.55;;;0.80;;
51304;SDS011;37392;50.964;6.952;2024-03-02T14:33:47;2.47;;;1.48;;
51304;SDS011;37392;50.964;6.952;2024-03-02T14:36:12;2.00;;;1.20;;
51304;SDS011;37392;50.964;6.952;2024-03-02T14:38:38;3.47;;;1.30;;
51304;SDS011;37392;50.964;6.952;2024-03-02T14:41:04;2.85;;;1.33;;
51304;SDS011;37392;50.964;6.952;2024-03-02T14:43:30;2.97;;;1.30;;
51304;SDS011;37392;50.964;6.952;2024-03-02T14:45:55;1.63;;;1.10;;
51304;SDS011;37392;50.964;6.952;2024-03-02T14:48:22;3.25;;;2.03;;
51304;SDS011;37392;50.964;6.952;2024-03-02T14:50:48;2.85;;;1.50;;
51304;SDS011;37392;50.964;6.952;2024-03-02T14:53:13;3.53;;;1.90;;
51304;SDS011;37392;50.964;6.952;2024-03-02T14:55:39;1.70;;;1.20;;
51304;SDS011;37392;50.964;6.952;2024-03-02T14:58:05;4.05;;;1.67;;
51304;SDS011;37392;50.964;6.952;2024-03-02T15:00:30;4.55;;;1.40;;